Ride Results

Wiangaree (05-10-2013)
Ride distance: 80.0 km

Outcomes - Wiangaree (05-10-2013)
Division No. of Entries Retired / DNE Completed Withdrawn Ineligible V/O Percentage Completed
HW 12 - 8 2 - 2 66.67%
MW 20 - 17 2 - 1 85.00%
LW 16 - 13 - - 3 81.25%
JN 10 - 9 - - 1 90.00%
Totals 58 - 47 4 - 7 81.03%
Results - Wiangaree (05-10-2013)
No. Rider Horse Place Time Leg Speeds Total
Km/Hr
H/R bpm
Heavyweight
18 Gary Surch Azale Anter 1 (BC) 5:28:00 15.3, 13.9 14.63 39, 51, 55 (Avg:53)
29 Christopher Schofield Bradali Ice N Rain 2 6:50:00 12.1, 11.3 11.71 41, 46, 47 (Avg:46)
57 Liz Terry Ausden Illusion 3 7:08:00 12.0, 10.4 11.21 36, 44, 53 (Avg:48)
44 Peter McDonald Wollumbin Rafiq 4 7:10:00 11.9, 10.4 11.16 33, 41, 44 (Avg:42)
37 Gary Thomas Cherox Decire 5 7:39:00 11.5, 9.5 10.46 32, 42, 52 (Avg:47)
9 Keith Sullivan Shamaria's Maggie 6 8:00:00 10.1, 9.8 10.00 37, 44, 47 (Avg:45)
23 Bruce Moore Brookleigh Apple Jack 7 8:01:00 9.7, 10.2 9.98 41, 43, 49 (Avg:46)
46 Marty Branigan Kholonial Bronzewings 8 8:44:00 9.1, 9.1 9.16 39, 42, 46 (Avg:44)
6 Troy Butler Sultan Metabolics L2 0:00:00 10.8, 10.3 - 37, 45, 46 (Avg:45)
4 Doug Dart Cameo Silver Slipper Gall or injury L1 0:00:00 9.5 - 42, 52 (Avg:52)
47 Len Derkacz Salam Zahbeel Widthdrawn L1 0:00:00 - - 33, 47 (Avg:47)
25 Tami Parnell Churinga Flyer Widthdrawn L1 0:00:00 - - 31, 45 (Avg:45)
Middleweight
41 Simone Krahnen Ardai 1 (BC) 5:25:00 14.2, 15.2 14.77 37, 46, 46 (Avg:46)
27 Narelle Childs Halo Kazaam 2 5:25:10 15.4, 14.1 14.76 33, 42, 47 (Avg:44)
51 Dean Chamberlain Annordean Cash 3 6:07:00 13.7, 12.4 13.08 33, 46, 46 (Avg:46)
21 David Urquhart Wantley Blue Angel 4 6:30:00 12.9, 11.7 12.31 32, 44, 48 (Avg:46)
28 Sharon Foster Sharabel Kalarney 5 6:50:00 12.1, 11.3 11.71 39, 42, 45 (Avg:43)
31 Cora Becker Shantih Lodge Shazaam 6 6:52:00 13.1, 10.4 11.65 37, 54, 46 (Avg:50)
5 Stephen Gray Aloha Kabuki 7 7:06:00 12.0, 10.5 11.27 36, 47, 47 (Avg:47)
42 Tracey Hutchinson Junabee Park Shamekha 8 7:11:00 10.9, 11.3 11.14 32, 36, 45 (Avg:40)
49 Sue Bugden Elfar Saffire 9 7:33:00 10.6, 10.5 10.60 36, 39, 46 (Avg:42)
12 Brook Sample Gheerulla Lamborghini 10 7:36:00 10.8, 10.2 10.53 36, 36, 43 (Avg:39)
38 Ashley Thomas Ben Mariah 11 7:39:00 11.5, 9.5 10.46 28, 38, 51 (Avg:44)
10 Patricia Coonan Chippington 12 8:00:00 10.1, 9.8 10.00 38, 47, 53 (Avg:50)
24 Emeline Lacour Brookleigh Air Jordan 13 8:01:00 9.7, 10.2 9.98 36, 44, 44 (Avg:44)
20 Natashja Burton Lindall Kalliope 14 8:15:00 10.1, 9.3 9.70 34, 43, 46 (Avg:44)
19 Angela Head Taj Miranda 14 8:15:00 10.1, 9.3 9.70 40, 43, 47 (Avg:45)
11 Megan Prior Meadowbrook Montana 16 8:34:00 9.9, 8.8 9.34 34, 42, 60 (Avg:51)
36 Lauren Trenkner Steel Poppy Mosaic 17 9:30:00 9.9, 7.2 8.42 38, 45, 46 (Avg:45)
8 Sabrina Stephens Royal Windsor Jacob Lame L2 0:00:00 12.1, 10.5 - 39, 45, 46 (Avg:45)
2 Lynn Coles Pinedene Arabella Widthdrawn L1 0:00:00 - - 36, 39 (Avg:39)
48 Malcolm Fletcher Torryburn Rahal Widthdrawn L1 0:00:00 - - 31, 43 (Avg:43)
Lightweight
39 Erin Krahnen Glengannon Azazael 1 (BC) 5:25:00 14.2, 15.2 14.77 37, 40, 44 (Avg:42)
52 Annette Chamberlain Annordean Lady Lilly 2 6:07:00 13.7, 12.4 13.08 36, 45, 43 (Avg:44)
22 Xanthe Webb Mercury Lodge Ferreddy 3 6:30:00 12.9, 11.7 12.31 37, 43, 47 (Avg:45)
34 Sonya Ryan Kholonial Amigo 4 6:31:00 13.1, 11.4 12.28 32, 45, 52 (Avg:48)
26 Christine Christie Sateen 5 7:05:00 12.1, 10.5 11.29 37, 38, 50 (Avg:44)
43 Libby Jones Beau Val Feodora 6 7:11:00 10.9, 11.3 11.14 39, 44, 48 (Avg:46)
15 Erica Garbero Kelkette Park Defy 7 7:12:00 10.9, 11.3 11.11 42, 45, 48 (Avg:46)
17 Malin Olsson Kelkette Park Delatite 7 7:12:00 10.9, 11.3 11.11 39, 42, 48 (Avg:45)
32 Christal Rizk Oakley Park Anticipation 9 7:31:00 9.8, 11.5 10.64 35, 42, 54 (Avg:48)
7 Wendy Butler Oscar De La Hoya 10 7:33:00 10.8, 10.3 10.60 37, 40, 42 (Avg:41)
16 Aurelie Cassin Brookleigh Francesca 11 7:36:00 10.8, 10.2 10.53 43, 46, 54 (Avg:50)
3 Meleita Dart Cameo Rhodezia 12 8:14:00 8.7, 10.9 9.72 39, 41, 41 (Avg:41)
45 Carla Jones Kholonial Bartholomew 13 8:44:00 9.1, 9.1 9.16 34, 43, 46 (Avg:44)
14 Leigh Ann Sample Gheerulla Quartz Lame L2 0:00:00 10.8, 10.2 - 36, 39, 44 (Avg:41)
35 Jan Tyrrell Steel Poppy Zen Lame L2 0:00:00 9.9, 28.2 - 36, 43, 43 (Avg:43)
60 Di Kupsch Fortaleza Ascira Lame L1 0:00:00 12.1 - 38, 39 (Avg:39)
Junior
40 Colleen Krahnen Kalkadoon Shalom 1 5:25:00 14.2, 15.2 14.77 35, 44, 48 (Avg:46)
54 Rilene Heydenreich Kalkadoon Vienna 2 (BC) 5:48:00 13.7, 13.8 13.79 30, 44, 39 (Avg:41)
53 Megan Stehouwer Ra Silver Dancer 2 5:48:00 13.7, 13.8 13.79 34, 46, 48 (Avg:47)
58 Hannah Terry Ra-Anji Diva 2 5:48:00 13.7, 13.8 13.79 36, 43, 47 (Avg:45)
30 Anu Woodruff Becker Teddy 2 5:48:00 13.7, 13.7 13.79 27, 37, 43 (Avg:40)
55 Jessica Terry Sasam 6 6:29:00 13.7, 11.2 12.34 31, 41, 47 (Avg:44)
33 Louis Ryan Magnum 7 6:31:00 13.1, 11.4 12.28 32, 36, 36 (Avg:36)
56 Tayla Hadzi Annordean Balin 8 6:52:00 12.8, 10.6 11.65 39, 49, 50 (Avg:49)
13 Matty Sample Brookleigh Milo 9 7:36:00 10.8, 10.2 10.53 39, 39, 47 (Avg:43)
50 Sarah Huddleston Summervale Top Gear Lame P/R 0:00:00 - - 46